Time;durP1;ratioP1;P1;durP2;ratioP2;P2;SDS_P1;SDS_P2;PMS_P1;PMS_P2;Temp;Humidity;BMP_temperature;BMP_pressure;BME280_temperature;BME280_humidity;BME280_pressure;Samples;Min_cycle;Max_cycle;Signal;HPM_P1;HPM_P2
2022/01/11 00:01:14;;;;;;;49.42;9.85;;;0.10;99.90;;;;;;4264721;27;20399;-82
2022/01/11 00:03:17;;;;;;;52.88;9.88;;;2.20;99.90;;;;;;4261614;27;20077;-82
2022/01/11 00:05:25;;;;;;;56.30;9.82;;;0.20;99.90;;;;;;4236363;28;20047;-82
2022/01/11 00:07:29;;;;;;;62.07;10.00;;;0.30;99.90;;;;;;4271443;27;20046;-82
2022/01/11 00:11:33;;;;;;;37.33;9.13;;;0.40;99.90;;;;;;4272617;27;20102;-83
2022/01/11 00:13:37;;;;;;;41.15;9.18;;;0.80;99.90;;;;;;4254198;27;20414;-82
2022/01/11 00:15:39;;;;;;;26.70;9.00;;;0.00;99.90;;;;;;4255741;27;20047;-83
2022/01/11 00:17:41;;;;;;;33.55;9.40;;;0.90;99.90;;;;;;4255102;27;20090;-82
2022/01/11 00:19:43;;;;;;;32.25;8.30;;;1.50;99.90;;;;;;4234530;28;20483;-82
2022/01/11 00:21:47;;;;;;;42.53;9.05;;;-0.10;99.90;;;;;;4266197;27;20066;-82
2022/01/11 00:26:07;;;;;;;40.05;8.43;;;0.60;99.90;;;;;;4280170;27;20102;-83
2022/01/11 00:28:16;;;;;;;58.60;9.20;;;0.00;99.90;;;;;;4257024;27;20133;-82
2022/01/11 00:30:18;;;;;;;24.73;8.13;;;-0.70;99.90;;;;;;4272970;27;20039;-82
2022/01/11 00:32:29;;;;;;;33.22;8.15;;;1.30;99.90;;;;;;4272684;27;20498;-83
2022/01/11 00:34:48;;;;;;;35.78;9.23;;;-0.10;99.90;;;;;;4254606;27;20047;-82
2022/01/11 00:36:50;;;;;;;24.35;7.68;;;-0.20;99.90;;;;;;4236273;28;20047;-82
2022/01/11 00:38:51;;;;;;;30.73;8.10;;;-0.10;99.90;;;;;;4236820;28;20081;-82
2022/01/11 00:40:58;;;;;;;27.35;8.43;;;-0.20;99.90;;;;;;4254680;27;20059;-82
2022/01/11 00:43:05;;;;;;;31.42;8.27;;;-0.20;99.90;;;;;;4255499;27;20049;-82
2022/01/11 00:45:12;;;;;;;43.70;9.32;;;0.00;99.90;;;;;;4220880;28;20135;-82
2022/01/11 00:47:15;;;;;;;22.83;8.00;;;-0.30;99.90;;;;;;4221932;28;20044;-83
2022/01/11 00:49:17;;;;;;;34.38;8.77;;;0.90;99.90;;;;;;4245458;27;20049;-83
2022/01/11 00:51:17;;;;;;;48.40;9.52;;;0.70;99.90;;;;;;4255297;27;20457;-82
2022/01/11 00:53:25;;;;;;;17.85;8.05;;;-0.70;99.90;;;;;;4235972;28;20048;-82
2022/01/11 00:55:34;;;;;;;26.13;8.02;;;0.30;99.90;;;;;;4222409;28;20059;-83
2022/01/11 00:57:34;;;;;;;45.87;9.77;;;-0.30;99.90;;;;;;4239235;28;20076;-83
2022/01/11 00:59:43;;;;;;;26.67;8.40;;;0.30;99.90;;;;;;4222133;28;20500;-83
2022/01/11 01:01:48;;;;;;;29.13;8.77;;;-0.40;99.90;;;;;;4238452;28;20051;-83
2022/01/11 01:03:49;;;;;;;31.27;8.27;;;0.30;99.90;;;;;;4256738;27;20039;-83
2022/01/11 01:05:57;;;;;;;26.02;8.35;;;0.90;99.90;;;;;;4256448;27;20376;-82
2022/01/11 01:08:00;;;;;;;27.38;8.57;;;-0.50;99.90;;;;;;4224843;28;20127;-83
2022/01/11 01:10:15;;;;;;;24.25;8.68;;;-0.40;99.90;;;;;;4237727;27;20044;-84
2022/01/11 01:12:16;;;;;;;25.20;8.48;;;-0.40;99.90;;;;;;4255932;27;20515;-84
2022/01/11 01:14:18;;;;;;;20.35;8.25;;;1.00;99.90;;;;;;4255927;27;20080;-84
2022/01/11 01:16:21;;;;;;;19.10;8.48;;;-0.10;99.90;;;;;;4238425;28;20484;-84
2022/01/11 01:18:25;;;;;;;29.23;9.38;;;0.40;99.90;;;;;;4221573;28;20048;-84
2022/01/11 01:20:27;;;;;;;24.95;8.70;;;0.80;99.90;;;;;;4237477;28;20099;-84
2022/01/11 01:22:28;;;;;;;20.08;8.30;;;0.70;99.90;;;;;;4255204;27;20035;-83
2022/01/11 01:24:28;;;;;;;21.00;8.18;;;0.80;99.90;;;;;;4255863;28;20063;-84
2022/01/11 01:26:31;;;;;;;21.13;7.95;;;-0.80;99.90;;;;;;4257195;27;20039;-83
2022/01/11 01:28:32;;;;;;;22.42;8.98;;;0.90;99.90;;;;;;4254878;28;20051;-83
2022/01/11 01:30:37;;;;;;;19.75;8.40;;;-0.30;99.90;;;;;;4255807;27;20047;-83
2022/01/11 01:32:41;;;;;;;28.30;8.82;;;0.20;99.90;;;;;;4255297;28;20046;-83
2022/01/11 01:34:49;;;;;;;21.50;7.90;;;-0.40;99.90;;;;;;4237543;28;20078;-83
2022/01/11 01:36:51;;;;;;;22.63;7.57;;;-0.10;99.90;;;;;;4240057;28;20032;-83
2022/01/11 01:38:53;;;;;;;24.02;8.65;;;-0.40;99.90;;;;;;4240303;28;20043;-83
2022/01/11 01:40:59;;;;;;;19.55;8.63;;;1.10;99.90;;;;;;4256889;27;20039;-83
2022/01/11 01:43:04;;;;;;;22.15;8.27;;;0.60;99.90;;;;;;4257099;27;20043;-83
2022/01/11 01:45:07;;;;;;;19.50;7.95;;;-0.70;99.90;;;;;;4239143;28;20051;-83
2022/01/11 01:47:12;;;;;;;18.92;8.90;;;-0.40;99.90;;;;;;4221904;28;20044;-83
2022/01/11 01:49:18;;;;;;;18.55;7.72;;;0.40;99.90;;;;;;4257516;27;20050;-83
2022/01/11 01:51:19;;;;;;;18.73;8.90;;;-0.60;99.90;;;;;;4222001;28;20062;-83
2022/01/11 01:53:21;;;;;;;19.92;8.40;;;0.40;99.90;;;;;;4238139;28;20086;-83
2022/01/11 01:55:23;;;;;;;19.85;7.78;;;0.20;99.90;;;;;;4265231;27;20039;-83
2022/01/11 01:57:25;;;;;;;18.15;8.50;;;-1.50;99.90;;;;;;4255359;27;20426;-83
2022/01/11 01:59:28;;;;;;;20.58;8.63;;;-0.40;99.90;;;;;;4274355;27;20387;-83
2022/01/11 02:01:35;;;;;;;19.17;8.10;;;0.10;99.90;;;;;;4248401;27;20043;-83
2022/01/11 02:03:39;;;;;;;22.50;9.07;;;-1.70;99.90;;;;;;4269132;27;20043;-83
2022/01/11 02:05:42;;;;;;;14.88;7.30;;;-0.40;99.90;;;;;;4275340;27;20049;-83
2022/01/11 02:07:44;;;;;;;21.83;9.00;;;0.60;99.90;;;;;;4275299;27;20038;-83
2022/01/11 02:09:45;;;;;;;20.50;8.90;;;-0.40;99.90;;;;;;4275367;27;20039;-83
2022/01/11 02:11:47;;;;;;;18.63;7.82;;;0.90;99.90;;;;;;4239834;28;20074;-83
2022/01/11 02:13:50;;;;;;;16.80;7.90;;;0.50;99.90;;;;;;4227865;28;20047;-83
2022/01/11 02:15:54;;;;;;;20.83;9.32;;;-0.50;99.90;;;;;;4257656;27;20051;-84
2022/01/11 02:18:05;;;;;;;21.63;8.40;;;-0.40;99.90;;;;;;4257443;27;20074;-83
2022/01/11 02:20:13;;;;;;;19.98;8.55;;;0.40;99.90;;;;;;4272804;27;20049;-83
2022/01/11 02:22:16;;;;;;;20.95;8.95;;;-0.40;99.90;;;;;;4273998;27;20038;-83
2022/01/11 02:24:24;;;;;;;31.52;8.38;;;-0.50;99.90;;;;;;4274366;27;20035;-84
2022/01/11 02:26:26;;;;;;;23.90;9.57;;;-0.60;99.90;;;;;;4256265;27;20130;-84
2022/01/11 02:28:28;;;;;;;24.50;10.00;;;-0.50;99.90;;;;;;4256711;27;20120;-83
2022/01/11 02:30:35;;;;;;;31.40;9.38;;;-0.50;99.90;;;;;;4237952;28;20071;-83
2022/01/11 02:32:48;;;;;;;22.75;9.25;;;0.80;99.90;;;;;;4254009;27;20077;-83
2022/01/11 02:34:51;;;;;;;24.42;9.55;;;0.60;99.90;;;;;;4255712;27;20050;-84
2022/01/11 02:36:54;;;;;;;27.85;9.20;;;0.90;99.90;;;;;;4239204;28;20048;-83
2022/01/11 02:38:56;;;;;;;37.03;10.02;;;-0.40;99.90;;;;;;4257197;27;20424;-83
2022/01/11 02:41:01;;;;;;;32.95;10.10;;;0.30;99.90;;;;;;4236148;28;20097;-83
2022/01/11 02:43:02;;;;;;;33.92;9.15;;;-0.50;99.90;;;;;;4227542;28;20059;-84
2022/01/11 02:45:14;;;;;;;45.42;10.00;;;-0.50;99.90;;;;;;4240529;28;20051;-83
2022/01/11 02:47:15;;;;;;;53.75;8.80;;;-1.50;99.90;;;;;;4239775;28;20108;-83
2022/01/11 02:49:17;;;;;;;47.28;10.02;;;0.10;99.90;;;;;;4214614;28;20044;-83
2022/01/11 02:51:24;;;;;;;89.07;11.50;;;-0.50;99.90;;;;;;4224755;28;20051;-83
2022/01/11 02:53:27;;;;;;;101.72;11.63;;;-0.50;99.90;;;;;;4224720;28;20484;-83
2022/01/11 02:55:38;;;;;;;41.25;9.80;;;-0.60;99.90;;;;;;4223595;28;20048;-84
2022/01/11 02:57:41;;;;;;;62.08;10.82;;;0.40;99.90;;;;;;4224382;28;20044;-83
2022/01/11 02:59:43;;;;;;;41.85;9.38;;;-0.90;99.90;;;;;;4222961;28;20051;-83
2022/01/11 03:01:46;;;;;;;23.35;8.82;;;-1.00;99.90;;;;;;4234128;28;20043;-83
2022/01/11 03:03:48;;;;;;;51.83;10.32;;;-0.60;99.90;;;;;;4240047;28;20063;-83
2022/01/11 03:05:54;;;;;;;57.80;10.93;;;-0.70;99.90;;;;;;4233225;28;20051;-83
2022/01/11 03:07:56;;;;;;;62.10;11.95;;;-0.40;99.90;;;;;;4235558;28;20047;-84
2022/01/11 03:10:10;;;;;;;54.45;10.80;;;-0.50;99.90;;;;;;4240472;28;20043;-83
2022/01/11 03:12:13;;;;;;;76.18;11.77;;;1.00;99.90;;;;;;4241415;28;20031;-84
2022/01/11 03:14:14;;;;;;;105.80;11.38;;;-0.60;99.90;;;;;;4224901;28;20520;-83
2022/01/11 03:16:18;;;;;;;91.78;13.35;;;-0.10;99.90;;;;;;4206632;28;20052;-83
2022/01/11 03:18:22;;;;;;;68.57;11.25;;;-0.50;99.90;;;;;;4222911;28;20045;-84
2022/01/11 03:20:24;;;;;;;91.03;10.70;;;-0.50;99.90;;;;;;4222801;28;20056;-84
2022/01/11 03:22:26;;;;;;;154.30;14.70;;;-0.50;99.90;;;;;;4204684;28;20138;-84
2022/01/11 03:24:28;;;;;;;95.47;11.15;;;1.20;99.90;;;;;;4221611;28;20071;-84
2022/01/11 03:26:30;;;;;;;87.93;11.80;;;-0.30;99.90;;;;;;4224032;28;20123;-84
2022/01/11 03:28:34;;;;;;;75.95;12.88;;;0.40;99.90;;;;;;4223205;28;20044;-84
2022/01/11 03:30:35;;;;;;;78.43;11.35;;;-0.40;99.90;;;;;;4223644;28;20048;-83
2022/01/11 03:32:39;;;;;;;114.30;14.55;;;0.70;99.90;;;;;;4223774;28;20186;-84
2022/01/11 03:34:47;;;;;;;53.55;11.15;;;-0.10;99.90;;;;;;4225266;28;20051;-84
2022/01/11 03:36:49;;;;;;;71.20;11.75;;;-0.50;99.90;;;;;;4228500;28;20043;-84
2022/01/11 03:38:55;;;;;;;72.97;11.38;;;-0.50;99.90;;;;;;4239019;28;20048;-84
2022/01/11 03:40:56;;;;;;;66.22;10.35;;;-0.60;99.90;;;;;;4240546;28;20511;-84
2022/01/11 03:43:01;;;;;;;47.45;11.65;;;-0.50;99.90;;;;;;4241906;28;20039;-84
2022/01/11 03:45:07;;;;;;;78.25;11.80;;;0.60;99.90;;;;;;4240983;28;20062;-84
2022/01/11 03:47:10;;;;;;;43.40;10.73;;;-0.50;99.90;;;;;;4240335;28;20047;-84
2022/01/11 03:49:10;;;;;;;58.60;10.70;;;-0.10;99.90;;;;;;4235305;28;20063;-84
2022/01/11 03:51:12;;;;;;;41.00;9.95;;;-0.50;99.90;;;;;;4228051;28;20047;-84
2022/01/11 03:53:17;;;;;;;39.75;9.77;;;-0.50;99.90;;;;;;4223131;28;20059;-84
2022/01/11 03:55:32;;;;;;;67.03;11.15;;;0.70;99.90;;;;;;4238505;28;20043;-84
2022/01/11 03:57:40;;;;;;;72.93;11.52;;;0.80;99.90;;;;;;4222470;28;20047;-84
2022/01/11 03:59:41;;;;;;;46.65;10.35;;;-0.10;99.90;;;;;;4240978;28;20407;-84
2022/01/11 04:01:43;;;;;;;67.70;12.15;;;0.20;99.90;;;;;;4229032;28;20032;-83
2022/01/11 04:03:47;;;;;;;49.53;10.15;;;0.80;99.90;;;;;;4206608;28;20504;-84
2022/01/11 04:05:52;;;;;;;57.63;9.70;;;0.40;99.90;;;;;;4224616;28;20044;-82
2022/01/11 04:07:54;;;;;;;55.90;10.52;;;-0.60;99.90;;;;;;4222103;28;20111;-82
2022/01/11 04:09:57;;;;;;;50.80;10.80;;;-0.60;99.90;;;;;;4221658;28;20151;-82
2022/01/11 04:12:00;;;;;;;75.75;12.25;;;0.80;99.90;;;;;;4221318;28;20048;-82
2022/01/11 04:14:02;;;;;;;60.33;11.05;;;0.10;99.90;;;;;;4236796;28;20047;-82
2022/01/11 04:16:03;;;;;;;59.45;11.20;;;-0.50;99.90;;;;;;4223152;28;20052;-82
2022/01/11 04:18:05;;;;;;;50.58;10.77;;;-0.60;99.90;;;;;;4241086;28;20113;-82
2022/01/11 04:20:09;;;;;;;46.20;11.85;;;-0.80;99.90;;;;;;4241863;28;20044;-82
2022/01/11 04:22:11;;;;;;;56.67;12.00;;;-0.50;99.90;;;;;;4222924;28;20055;-82
2022/01/11 04:24:13;;;;;;;112.72;14.63;;;0.50;99.90;;;;;;4240864;28;20040;-82
2022/01/11 04:26:14;;;;;;;120.55;13.52;;;-0.60;99.90;;;;;;4226628;28;20043;-82
2022/01/11 04:28:16;;;;;;;96.40;12.75;;;-1.10;99.90;;;;;;4216592;28;20055;-82
2022/01/11 04:30:18;;;;;;;85.68;12.40;;;-0.60;99.90;;;;;;4208241;28;20056;-82
2022/01/11 04:32:22;;;;;;;54.30;12.38;;;-0.10;99.90;;;;;;4239855;28;20043;-82
2022/01/11 04:34:25;;;;;;;97.95;12.68;;;0.90;99.90;;;;;;4223689;28;20058;-82
2022/01/11 04:36:26;;;;;;;85.18;12.02;;;-0.60;99.90;;;;;;4242043;28;20047;-83
2022/01/11 04:38:31;;;;;;;73.95;13.18;;;-0.50;99.90;;;;;;4240800;28;20050;-82
2022/01/11 04:40:32;;;;;;;70.82;11.35;;;0.20;99.90;;;;;;4242085;28;20048;-83
2022/01/11 04:42:36;;;;;;;73.88;11.68;;;0.10;99.90;;;;;;4258444;27;21083;-82
2022/01/11 04:44:39;;;;;;;64.05;11.85;;;-0.50;99.90;;;;;;4261223;27;20027;-82
2022/01/11 04:46:41;;;;;;;92.07;13.43;;;-0.50;99.90;;;;;;4222841;28;20048;-82
2022/01/11 04:48:42;;;;;;;55.53;11.38;;;-0.20;99.90;;;;;;4225622;28;20066;-82
2022/01/11 04:50:45;;;;;;;85.32;12.43;;;-0.30;99.90;;;;;;4257316;27;20200;-82
2022/01/11 04:52:51;;;;;;;46.08;11.18;;;0.60;99.90;;;;;;4275808;27;20042;-82
2022/01/11 04:54:53;;;;;;;61.95;12.18;;;-0.50;99.90;;;;;;4270904;27;20031;-82
2022/01/11 04:57:00;;;;;;;51.85;11.15;;;0.40;99.90;;;;;;4239549;28;20039;-82
2022/01/11 04:59:05;;;;;;;85.88;12.80;;;1.40;99.90;;;;;;4259589;27;20077;-82
2022/01/11 05:01:08;;;;;;;49.20;9.52;;;-0.80;99.90;;;;;;4268322;27;20039;-82
2022/01/11 05:03:10;;;;;;;52.70;11.02;;;0.50;99.90;;;;;;4222690;28;20048;-82
2022/01/11 05:05:17;;;;;;;38.50;10.30;;;0.20;99.90;;;;;;4222106;28;20040;-82
2022/01/11 05:07:19;;;;;;;35.83;11.05;;;-0.50;99.90;;;;;;4245826;27;20043;-82
2022/01/11 05:09:20;;;;;;;48.92;11.30;;;1.20;99.90;;;;;;4257040;27;20103;-82
2022/01/11 05:11:22;;;;;;;42.22;10.25;;;-1.70;99.90;;;;;;4275089;27;20118;-82
2022/01/11 05:13:25;;;;;;;49.90;11.80;;;0.20;99.90;;;;;;4264492;27;20523;-82
2022/01/11 05:15:28;;;;;;;43.00;10.75;;;-0.40;99.90;;;;;;4235994;28;20100;-82
2022/01/11 05:17:31;;;;;;;36.05;10.10;;;0.70;99.90;;;;;;4256255;27;20130;-82
2022/01/11 05:19:34;;;;;;;30.02;11.15;;;0.80;99.90;;;;;;4231796;28;20047;-82
2022/01/11 05:21:43;;;;;;;28.92;9.77;;;0.90;99.90;;;;;;4223154;28;20048;-83
2022/01/11 05:23:45;;;;;;;31.17;9.45;;;-0.50;99.90;;;;;;4222933;28;20044;-82
2022/01/11 05:25:48;;;;;;;28.83;9.95;;;-0.40;99.90;;;;;;4268373;27;20047;-82
2022/01/11 05:27:49;;;;;;;30.52;9.88;;;-0.50;99.90;;;;;;4239479;28;20047;-82
2022/01/11 05:29:51;;;;;;;39.28;9.65;;;-1.10;99.90;;;;;;4239778;28;20047;-82
2022/01/11 05:31:51;;;;;;;27.58;9.85;;;1.00;99.90;;;;;;4228144;28;20044;-83
2022/01/11 05:33:52;;;;;;;34.25;11.13;;;0.20;99.90;;;;;;4230151;28;20051;-83
2022/01/11 05:35:53;;;;;;;31.30;9.55;;;0.50;99.90;;;;;;4239201;28;20048;-82
2022/01/11 05:37:54;;;;;;;28.20;9.32;;;-0.50;99.90;;;;;;4256806;28;20072;-82
2022/01/11 05:39:55;;;;;;;29.77;10.45;;;1.20;99.90;;;;;;4257850;28;20047;-82
2022/01/11 05:41:56;;;;;;;30.65;9.52;;;-0.50;99.90;;;;;;4256531;28;20415;-83
2022/01/11 05:43:57;;;;;;;31.63;11.10;;;0.90;99.90;;;;;;4233853;28;20527;-83
2022/01/11 05:45:59;;;;;;;31.10;9.13;;;0.30;99.90;;;;;;4256436;28;20494;-83
2022/01/11 05:48:03;;;;;;;33.55;10.15;;;0.60;99.90;;;;;;4256762;28;20099;-82
2022/01/11 05:50:07;;;;;;;28.45;10.10;;;-0.10;99.90;;;;;;4258499;27;20062;-83
2022/01/11 05:52:10;;;;;;;30.02;10.45;;;-0.40;99.90;;;;;;4256780;28;20051;-83
2022/01/11 05:54:19;;;;;;;30.27;10.13;;;-0.40;99.90;;;;;;4238113;28;20048;-82
2022/01/11 05:56:24;;;;;;;31.13;10.18;;;-0.20;99.90;;;;;;4256412;27;20119;-82
2022/01/11 05:58:26;;;;;;;30.58;10.10;;;0.00;99.90;;;;;;4221132;28;20055;-82
2022/01/11 06:00:31;;;;;;;37.55;11.60;;;0.60;99.90;;;;;;4255766;27;20043;-82
2022/01/11 06:02:32;;;;;;;29.98;9.95;;;-0.30;99.90;;;;;;4237866;28;20042;-82
2022/01/11 06:04:41;;;;;;;30.35;10.43;;;0.20;99.90;;;;;;4254248;28;20648;-82
2022/01/11 06:06:43;;;;;;;29.75;9.88;;;-0.20;99.90;;;;;;4271233;27;20099;-82
2022/01/11 06:08:45;;;;;;;29.67;10.63;;;-0.30;99.90;;;;;;4255714;28;20554;-82
2022/01/11 06:10:53;;;;;;;28.05;9.40;;;-0.10;99.90;;;;;;4256252;28;20050;-82
2022/01/11 06:12:55;;;;;;;25.67;9.93;;;1.30;99.90;;;;;;4260222;27;20099;-83
2022/01/11 06:14:57;;;;;;;27.00;9.88;;;-0.30;99.90;;;;;;4273302;27;20122;-83
2022/01/11 06:17:05;;;;;;;31.67;10.90;;;-0.20;99.90;;;;;;4254503;28;20043;-82
2022/01/11 06:19:09;;;;;;;31.65;10.55;;;-0.20;99.90;;;;;;4233913;28;20136;-82
2022/01/11 06:21:13;;;;;;;33.50;10.80;;;-0.30;99.90;;;;;;4222041;28;20051;-82
2022/01/11 06:23:14;;;;;;;24.50;10.23;;;-0.30;99.90;;;;;;4259562;27;20043;-82
2022/01/11 06:25:17;;;;;;;31.90;10.65;;;0.60;99.90;;;;;;4247959;27;20510;-82
2022/01/11 06:27:18;;;;;;;32.10;9.45;;;0.80;99.90;;;;;;4259286;27;20046;-82
2022/01/11 06:29:22;;;;;;;38.65;9.40;;;1.40;99.90;;;;;;4240418;28;20054;-82
2022/01/11 06:31:30;;;;;;;32.67;9.60;;;0.90;99.90;;;;;;4259359;27;20047;-82
2022/01/11 06:33:40;;;;;;;26.92;10.05;;;-0.60;99.90;;;;;;4258766;27;20054;-82
2022/01/11 06:35:43;;;;;;;31.70;10.27;;;0.20;99.90;;;;;;4240490;28;20062;-82
2022/01/11 06:37:45;;;;;;;30.15;9.60;;;-0.70;99.90;;;;;;4238979;28;20083;-82
2022/01/11 06:39:47;;;;;;;35.38;11.00;;;-0.30;99.90;;;;;;4240166;28;20488;-82
2022/01/11 06:41:48;;;;;;;32.75;11.43;;;1.20;99.90;;;;;;4258487;27;20055;-82
2022/01/11 06:43:52;;;;;;;31.50;10.95;;;0.50;99.90;;;;;;4270468;27;20058;-83
2022/01/11 06:45:54;;;;;;;34.13;10.40;;;0.30;99.90;;;;;;4239964;28;20047;-83
2022/01/11 06:47:57;;;;;;;31.27;9.82;;;0.80;99.90;;;;;;4275835;27;20045;-82
2022/01/11 06:50:03;;;;;;;26.05;10.02;;;1.40;99.90;;;;;;4240828;28;20523;-82
2022/01/11 06:52:04;;;;;;;31.73;10.27;;;-0.30;99.90;;;;;;4240554;28;20075;-82
2022/01/11 06:54:08;;;;;;;39.50;11.13;;;-0.20;99.90;;;;;;4262300;27;20043;-82
2022/01/11 06:56:10;;;;;;;34.75;10.88;;;-0.20;99.90;;;;;;4275021;27;20095;-82
2022/01/11 06:58:13;;;;;;;36.65;11.68;;;0.20;99.90;;;;;;4239987;28;20051;-81
2022/01/11 07:00:14;;;;;;;32.20;10.93;;;1.40;99.90;;;;;;4258158;27;20047;-82
2022/01/11 07:02:21;;;;;;;30.95;11.20;;;-0.40;99.90;;;;;;4242327;27;20197;-82
2022/01/11 07:04:22;;;;;;;38.08;11.50;;;-0.20;99.90;;;;;;4259039;27;20414;-82
2022/01/11 07:06:24;;;;;;;36.33;12.35;;;0.40;99.90;;;;;;4223783;28;20052;-82
2022/01/11 07:08:27;;;;;;;34.38;11.35;;;0.10;99.90;;;;;;4258430;27;20050;-83
2022/01/11 07:10:31;;;;;;;29.33;10.40;;;-0.20;99.90;;;;;;4239908;28;20055;-83
2022/01/11 07:12:34;;;;;;;31.95;11.18;;;1.10;99.90;;;;;;4241320;27;20453;-83
2022/01/11 07:14:37;;;;;;;28.40;11.00;;;1.30;99.90;;;;;;4275646;27;20070;-82
2022/01/11 07:16:41;;;;;;;38.25;10.88;;;-0.20;99.90;;;;;;4257786;27;20512;-83
2022/01/11 07:18:44;;;;;;;28.98;10.82;;;-0.10;99.90;;;;;;4255071;27;20047;-83
2022/01/11 07:20:47;;;;;;;31.55;10.30;;;-0.20;99.90;;;;;;4231756;28;20055;-82
2022/01/11 07:22:50;;;;;;;34.67;11.63;;;-0.10;99.90;;;;;;4267284;27;20046;-83
2022/01/11 07:24:52;;;;;;;35.92;11.20;;;0.90;99.90;;;;;;4231506;28;20058;-83
2022/01/11 07:26:55;;;;;;;34.38;10.77;;;1.70;99.90;;;;;;4264251;27;20510;-85
2022/01/11 07:29:03;;;;;;;28.40;10.52;;;1.20;99.90;;;;;;4260168;27;20062;-84
2022/01/11 07:31:05;;;;;;;30.85;9.68;;;0.00;99.90;;;;;;4256658;27;20047;-84
2022/01/11 07:33:06;;;;;;;33.75;9.65;;;0.10;99.90;;;;;;4255798;27;20072;-84
2022/01/11 07:35:16;;;;;;;31.48;11.20;;;0.90;99.90;;;;;;4256541;27;20039;-84
2022/01/11 07:37:27;;;;;;;30.23;9.75;;;0.90;99.90;;;;;;4256203;27;20036;-84
2022/01/11 07:39:28;;;;;;;28.75;10.57;;;0.90;99.90;;;;;;4255908;27;20039;-85
2022/01/11 07:41:29;;;;;;;35.33;10.82;;;-0.50;99.90;;;;;;4221714;28;20059;-85
2022/01/11 07:43:31;;;;;;;30.67;11.30;;;0.70;99.90;;;;;;4258828;27;20053;-84
2022/01/11 07:45:31;;;;;;;34.20;10.63;;;-0.10;99.90;;;;;;4241448;27;20123;-84
2022/01/11 07:47:34;;;;;;;30.30;10.90;;;0.00;99.90;;;;;;4221106;28;20458;-84
2022/01/11 07:49:35;;;;;;;35.00;10.48;;;0.70;99.90;;;;;;4229775;28;20564;-84
2022/01/11 07:51:36;;;;;;;33.60;10.93;;;0.40;99.90;;;;;;4220199;28;20044;-84
2022/01/11 07:53:40;;;;;;;37.83;10.93;;;0.00;99.90;;;;;;4255200;27;20042;-84
2022/01/11 07:55:41;;;;;;;34.30;10.57;;;-0.90;99.90;;;;;;4255529;27;20455;-83
2022/01/11 07:57:42;;;;;;;31.88;10.45;;;0.10;99.90;;;;;;4271900;27;20064;-84
2022/01/11 07:59:42;;;;;;;30.05;10.90;;;0.10;99.90;;;;;;4251922;27;20086;-84
2022/01/11 08:01:44;;;;;;;31.88;9.70;;;-0.20;99.90;;;;;;4260073;27;20526;-84
2022/01/11 08:03:47;;;;;;;30.60;9.35;;;0.90;99.90;;;;;;4230137;28;20172;-84
2022/01/11 08:05:50;;;;;;;27.42;10.52;;;0.20;99.90;;;;;;4236835;28;20043;-83
2022/01/11 08:07:51;;;;;;;32.38;10.70;;;1.40;99.90;;;;;;4249184;27;20178;-84
2022/01/11 08:09:54;;;;;;;31.50;10.85;;;-0.10;99.90;;;;;;4219584;28;20523;-84
2022/01/11 08:11:58;;;;;;;27.98;9.38;;;0.20;99.90;;;;;;4239579;28;20123;-84
2022/01/11 08:14:05;;;;;;;30.02;10.48;;;0.40;99.90;;;;;;4251048;27;20058;-84
2022/01/11 08:16:06;;;;;;;34.15;11.20;;;1.40;99.90;;;;;;4253753;27;20086;-84
2022/01/11 08:18:08;;;;;;;27.10;10.02;;;0.60;99.90;;;;;;4237030;28;20056;-84
2022/01/11 08:20:10;;;;;;;27.40;10.00;;;1.40;99.90;;;;;;4257334;27;20536;-84
2022/01/11 08:22:12;;;;;;;34.10;10.25;;;0.30;99.90;;;;;;4220053;28;20408;-84
2022/01/11 08:24:12;;;;;;;28.02;9.30;;;0.20;99.90;;;;;;4236513;28;20043;-84
2022/01/11 08:26:14;;;;;;;30.05;9.63;;;0.50;99.90;;;;;;4235583;28;20069;-84
2022/01/11 08:28:14;;;;;;;30.83;10.27;;;0.50;99.90;;;;;;4222914;28;20404;-84
2022/01/11 08:30:15;;;;;;;30.85;9.23;;;0.30;99.90;;;;;;4231302;28;20079;-84
2022/01/11 08:32:17;;;;;;;37.97;10.38;;;0.80;99.90;;;;;;4267691;27;20387;-84
2022/01/11 08:34:18;;;;;;;25.92;10.43;;;1.00;99.90;;;;;;4254807;27;20406;-84
2022/01/11 08:36:19;;;;;;;28.80;10.70;;;1.30;99.90;;;;;;4248170;27;20040;-84
2022/01/11 08:38:22;;;;;;;39.53;11.10;;;1.50;99.90;;;;;;4248889;27;20044;-84
2022/01/11 08:40:24;;;;;;;35.17;10.85;;;1.80;99.90;;;;;;4250273;27;20534;-84
2022/01/11 08:42:29;;;;;;;29.48;10.05;;;0.60;99.90;;;;;;4265407;27;20051;-84
2022/01/11 08:44:29;;;;;;;29.98;9.50;;;0.50;99.90;;;;;;4255104;27;20118;-84
2022/01/11 08:46:31;;;;;;;29.33;10.63;;;0.50;99.90;;;;;;4241337;27;20057;-85
2022/01/11 08:48:33;;;;;;;27.52;10.13;;;1.50;99.90;;;;;;4229289;28;20066;-85
2022/01/11 08:50:34;;;;;;;28.23;9.82;;;2.20;99.90;;;;;;4224814;28;20067;-85
2022/01/11 08:52:35;;;;;;;24.88;9.85;;;1.60;99.90;;;;;;4222798;28;20047;-84
2022/01/11 08:54:37;;;;;;;28.25;12.00;;;0.40;99.90;;;;;;4249788;27;20057;-84
2022/01/11 08:56:40;;;;;;;32.60;10.90;;;2.10;99.90;;;;;;4255049;27;20407;-84
2022/01/11 08:58:42;;;;;;;31.05;8.85;;;1.70;99.90;;;;;;4253813;27;20031;-84
2022/01/11 09:00:43;;;;;;;30.75;9.88;;;1.60;99.90;;;;;;4251241;27;20551;-84
2022/01/11 09:02:52;;;;;;;28.50;9.55;;;2.20;99.90;;;;;;4230552;28;20081;-84
2022/01/11 09:04:55;;;;;;;28.85;9.52;;;0.70;99.90;;;;;;4264141;27;20527;-84
2022/01/11 09:06:58;;;;;;;27.92;9.35;;;0.80;99.90;;;;;;4237281;27;20039;-84
2022/01/11 09:09:02;;;;;;;27.20;9.40;;;0.60;99.90;;;;;;4234924;27;20047;-84
2022/01/11 09:11:06;;;;;;;32.53;9.77;;;1.60;99.90;;;;;;4256704;27;20070;-84
2022/01/11 09:13:09;;;;;;;30.60;9.60;;;0.30;99.90;;;;;;4244484;27;20054;-84
2022/01/11 09:15:11;;;;;;;34.28;9.82;;;0.60;99.90;;;;;;4248634;27;20054;-84
2022/01/11 09:17:14;;;;;;;32.28;10.57;;;2.00;99.90;;;;;;4254400;27;20537;-85
2022/01/11 09:19:18;;;;;;;30.17;10.18;;;1.40;99.90;;;;;;4234498;27;20035;-85
2022/01/11 09:21:22;;;;;;;28.60;9.07;;;1.00;99.90;;;;;;4251911;27;20045;-84
2022/01/11 09:23:23;;;;;;;24.15;8.55;;;1.70;99.90;;;;;;4221718;28;20135;-85
2022/01/11 09:25:24;;;;;;;26.90;8.98;;;0.30;99.90;;;;;;4248568;27;20118;-85
2022/01/11 09:27:25;;;;;;;29.55;8.32;;;1.20;99.90;;;;;;4228948;28;20126;-85
2022/01/11 09:29:28;;;;;;;31.10;9.27;;;1.80;99.90;;;;;;4233848;28;20047;-85
2022/01/11 09:31:34;;;;;;;26.50;8.95;;;0.40;99.90;;;;;;4231802;28;20085;-85
2022/01/11 09:33:35;;;;;;;26.75;9.25;;;1.10;99.90;;;;;;4233673;28;20491;-85
2022/01/11 09:35:37;;;;;;;28.58;9.30;;;1.60;99.90;;;;;;4230613;28;20284;-85
2022/01/11 09:37:39;;;;;;;22.20;8.50;;;1.60;99.90;;;;;;4240591;28;20040;-85
2022/01/11 09:39:44;;;;;;;26.80;7.93;;;1.50;99.90;;;;;;4222237;28;20063;-85
2022/01/11 09:42:02;;;;;;;25.90;9.32;;;0.50;99.90;;;;;;4235783;28;20059;-85
2022/01/11 09:44:11;;;;;;;28.08;8.63;;;1.60;99.90;;;;;;4246531;28;20039;-85
2022/01/11 09:46:14;;;;;;;23.70;7.95;;;0.70;99.90;;;;;;4267238;27;20034;-84
2022/01/11 09:48:22;;;;;;;20.63;7.53;;;1.00;99.90;;;;;;4250149;28;20043;-85
2022/01/11 09:50:23;;;;;;;23.17;8.23;;;1.50;99.90;;;;;;4242677;28;20046;-84
2022/01/11 09:52:27;;;;;;;19.92;7.57;;;1.10;99.90;;;;;;4230700;28;20130;-84
2022/01/11 09:54:29;;;;;;;23.05;7.32;;;0.70;99.90;;;;;;4249842;28;20062;-85
2022/01/11 09:56:35;;;;;;;20.17;7.07;;;0.50;99.90;;;;;;4264430;27;20034;-84
2022/01/11 09:58:36;;;;;;;21.83;6.68;;;1.80;99.90;;;;;;4227274;28;20040;-84
2022/01/11 10:00:40;;;;;;;20.92;7.63;;;0.70;99.90;;;;;;4267255;27;20043;-84
2022/01/11 10:02:42;;;;;;;24.02;8.48;;;1.90;99.90;;;;;;4226961;28;20044;-85
2022/01/11 10:04:54;;;;;;;21.13;8.13;;;0.70;99.90;;;;;;4245802;27;20593;-85
2022/01/11 10:06:59;;;;;;;20.90;6.88;;;0.70;99.90;;;;;;4234340;28;20062;-85
2022/01/11 10:09:21;;;;;;;18.90;6.93;;;0.60;99.90;;;;;;4251319;27;20146;-84
2022/01/11 10:11:48;;;;;;;21.88;6.95;;;0.70;99.90;;;;;;4255043;27;20067;-85
2022/01/11 10:13:50;;;;;;;19.88;6.38;;;0.80;99.90;;;;;;4236290;28;20372;-85
2022/01/11 10:16:16;;;;;;;16.88;6.55;;;1.50;99.90;;;;;;4237499;28;20073;-85
2022/01/11 10:18:37;;;;;;;20.00;7.22;;;0.70;99.90;;;;;;4236188;27;20051;-83
2022/01/11 10:20:39;;;;;;;15.02;6.15;;;1.40;99.90;;;;;;4225432;28;20047;-85
2022/01/11 10:22:46;;;;;;;18.83;6.47;;;0.80;99.90;;;;;;4237028;28;20440;-88
2022/01/11 10:24:54;;;;;;;16.63;7.13;;;0.90;99.90;;;;;;4261256;27;20090;-83
2022/01/11 10:26:56;;;;;;;21.85;6.63;;;0.90;99.90;;;;;;4256694;27;20047;-82
2022/01/11 10:28:57;;;;;;;18.17;5.75;;;1.80;99.90;;;;;;4259075;27;20046;-84
2022/01/11 10:30:58;;;;;;;19.80;6.57;;;0.90;99.90;;;;;;4263180;27;20039;-84
2022/01/11 10:33:03;;;;;;;20.20;6.25;;;2.10;99.90;;;;;;4238874;28;20178;-84
2022/01/11 10:35:08;;;;;;;22.55;6.15;;;1.70;99.90;;;;;;4255570;27;20088;-84
2022/01/11 10:37:10;;;;;;;16.15;6.38;;;1.00;99.90;;;;;;4237907;28;20055;-84
2022/01/11 10:39:33;;;;;;;15.73;5.53;;;1.00;99.90;;;;;;4222214;28;20048;-83
2022/01/11 10:41:44;;;;;;;15.02;5.90;;;1.10;99.90;;;;;;4246419;28;20043;-83